Time;durP1;ratioP1;P1;durP2;ratioP2;P2;SDS_P1;SDS_P2;PMS_P1;PMS_P2;Temp;Humidity;BMP_temperature;BMP_pressure;BME280_temperature;BME280_humidity;BME280_pressure;Samples;Min_cycle;Max_cycle;Signal;HPM_P1;HPM_P2
2023/01/20 00:01:08;;;;;;;5.93;2.42;;;0.60;99.90;;;;;;4877243;29;20047;-84
2023/01/20 00:03:34;;;;;;;5.28;2.50;;;-0.20;99.90;;;;;;4874379;29;20050;-84
2023/01/20 00:06:00;;;;;;;4.03;2.58;;;-0.20;99.90;;;;;;4857624;29;20045;-84
2023/01/20 00:08:26;;;;;;;4.10;2.28;;;1.50;99.90;;;;;;4879519;29;20044;-84
2023/01/20 00:10:51;;;;;;;3.47;2.10;;;-0.30;99.90;;;;;;4873109;29;20055;-84
2023/01/20 00:13:17;;;;;;;4.82;2.90;;;-0.20;99.90;;;;;;4888416;29;20061;-84
2023/01/20 00:15:43;;;;;;;5.60;2.73;;;-0.20;99.90;;;;;;4862682;29;20044;-84
2023/01/20 00:18:08;;;;;;;4.60;2.63;;;-0.20;99.90;;;;;;4861120;29;20343;-84
2023/01/20 00:20:34;;;;;;;3.78;2.17;;;-0.20;99.90;;;;;;4891964;29;20787;-84
2023/01/20 00:23:00;;;;;;;3.75;2.40;;;-0.20;99.90;;;;;;4888652;29;20045;-84
2023/01/20 00:25:26;;;;;;;4.33;2.73;;;-0.20;99.90;;;;;;4886256;29;20055;-84
2023/01/20 00:27:54;;;;;;;3.87;2.50;;;-0.20;99.90;;;;;;4860623;29;20320;-84
2023/01/20 00:30:20;;;;;;;6.65;3.00;;;-0.20;99.90;;;;;;4879667;29;20301;-84
2023/01/20 00:32:46;;;;;;;5.28;2.90;;;-0.20;99.90;;;;;;4857944;29;20396;-84
2023/01/20 00:35:12;;;;;;;4.95;3.05;;;-0.20;99.90;;;;;;4892179;29;20039;-84
2023/01/20 00:37:38;;;;;;;5.55;3.00;;;-0.30;99.90;;;;;;4875946;29;20039;-84
2023/01/20 00:40:05;;;;;;;6.53;3.20;;;-0.30;99.90;;;;;;4890850;29;20501;-84
2023/01/20 00:42:31;;;;;;;8.40;3.20;;;-0.30;99.90;;;;;;4892557;29;20073;-85
2023/01/20 00:44:57;;;;;;;9.02;4.22;;;0.10;99.90;;;;;;4876826;29;20092;-84
2023/01/20 00:47:23;;;;;;;11.25;4.45;;;-0.10;99.90;;;;;;4885553;29;20051;-84
2023/01/20 00:49:48;;;;;;;7.57;4.10;;;0.20;99.90;;;;;;4885110;29;20420;-84
2023/01/20 00:52:14;;;;;;;11.15;5.10;;;0.20;99.90;;;;;;4887669;29;20103;-84
2023/01/20 00:54:40;;;;;;;10.13;4.78;;;-0.30;99.90;;;;;;4895027;29;20039;-84
2023/01/20 00:57:06;;;;;;;10.02;4.90;;;-0.30;99.90;;;;;;4888181;29;20166;-84
2023/01/20 00:59:31;;;;;;;11.60;5.82;;;0.40;99.90;;;;;;4892462;29;20055;-84
2023/01/20 01:01:57;;;;;;;11.63;5.68;;;-0.20;99.90;;;;;;4887982;29;20087;-85
2023/01/20 01:04:23;;;;;;;12.70;5.45;;;-0.10;99.90;;;;;;4887065;29;20040;-85
2023/01/20 01:06:49;;;;;;;13.95;6.43;;;-0.20;99.90;;;;;;4864021;29;20082;-85
2023/01/20 01:09:15;;;;;;;;;;;-0.10;99.90;;;;;;4885174;29;20387;-85
2023/01/20 01:11:41;;;;;;;17.30;7.10;;;0.30;99.90;;;;;;4875298;29;19919;-85
2023/01/20 01:14:07;;;;;;;27.67;8.52;;;-0.10;99.90;;;;;;4891101;29;20048;-84
2023/01/20 01:16:32;;;;;;;31.40;9.32;;;1.20;99.90;;;;;;4872335;29;20557;-84
2023/01/20 01:18:58;;;;;;;20.98;7.70;;;0.00;99.90;;;;;;4892783;29;20509;-84
2023/01/20 01:21:24;;;;;;;23.85;9.10;;;0.00;99.90;;;;;;4889339;29;20092;-84
2023/01/20 01:23:51;;;;;;;24.02;7.88;;;1.70;99.90;;;;;;4873554;29;20051;-84
2023/01/20 01:26:17;;;;;;;35.58;8.77;;;0.50;99.90;;;;;;4873275;29;20052;-85
2023/01/20 01:28:45;;;;;;;40.13;8.55;;;1.50;99.90;;;;;;4886909;29;20040;-85
2023/01/20 01:31:11;;;;;;;55.22;8.63;;;1.60;99.90;;;;;;4895070;29;20504;-85
2023/01/20 01:33:37;;;;;;;61.33;10.50;;;0.10;99.90;;;;;;4873786;29;20039;-84
2023/01/20 01:36:04;;;;;;;50.38;7.43;;;0.10;99.90;;;;;;4887497;29;20044;-84
2023/01/20 01:38:30;;;;;;;49.55;8.57;;;0.10;99.90;;;;;;4890918;29;20040;-84
2023/01/20 01:40:56;;;;;;;94.63;9.25;;;0.50;99.90;;;;;;4891718;29;20106;-85
2023/01/20 01:43:36;;;;;;;105.88;11.50;;;0.00;99.90;;;;;;4888684;29;20040;-84
2023/01/20 01:46:03;;;;;;;128.68;10.57;;;-0.10;99.90;;;;;;4873181;29;20092;-85
2023/01/20 01:48:31;;;;;;;;;;;0.90;99.90;;;;;;4871161;29;20041;-84
2023/01/20 01:51:06;;;;;;;14.63;6.13;;;-0.30;99.90;;;;;;4880126;29;19971;-85
2023/01/20 01:53:40;;;;;;;11.43;5.53;;;-0.30;99.90;;;;;;4887441;29;20052;-85
2023/01/20 01:56:06;;;;;;;13.70;5.80;;;-0.40;99.90;;;;;;4883703;29;20119;-85
2023/01/20 01:58:35;;;;;;;;;;;1.20;99.90;;;;;;4884866;29;20044;-85
2023/01/20 02:01:01;;;;;;;10.82;5.47;;;1.20;99.90;;;;;;4871818;29;19919;-84
2023/01/20 02:03:56;;;;;;;14.40;6.03;;;0.10;99.90;;;;;;4886821;29;20050;-85
2023/01/20 02:06:26;;;;;;;12.48;5.32;;;-0.50;99.90;;;;;;4866333;29;20054;-85
2023/01/20 02:08:52;;;;;;;14.82;5.72;;;-0.50;99.90;;;;;;4876777;29;20119;-85
2023/01/20 02:11:17;;;;;;;11.48;5.47;;;-0.40;99.90;;;;;;4873513;29;20044;-85
2023/01/20 02:13:43;;;;;;;11.65;6.13;;;-0.50;99.90;;;;;;4857852;29;20413;-85
2023/01/20 02:16:23;;;;;;;14.43;6.28;;;-0.50;99.90;;;;;;4891321;29;20124;-85
2023/01/20 02:19:10;;;;;;;12.45;5.55;;;-0.40;99.90;;;;;;4890350;29;20052;-85
2023/01/20 02:22:13;;;;;;;16.58;6.50;;;-0.20;99.90;;;;;;4888559;29;20040;-85
2023/01/20 02:24:59;;;;;;;16.20;6.90;;;-0.10;99.90;;;;;;4889270;29;20041;-84
2023/01/20 02:27:44;;;;;;;20.23;6.43;;;0.00;99.90;;;;;;4884954;29;20126;-84
2023/01/20 02:30:16;;;;;;;12.65;5.63;;;0.00;99.90;;;;;;4890303;29;20400;-84
2023/01/20 02:32:57;;;;;;;18.55;7.95;;;0.10;99.90;;;;;;4884634;29;20036;-84
2023/01/20 02:35:55;;;;;;;16.13;7.57;;;0.10;99.90;;;;;;4882493;29;20036;-84
2023/01/20 02:38:41;;;;;;;19.00;8.77;;;0.20;99.90;;;;;;4893037;29;20129;-84
2023/01/20 02:41:19;;;;;;;11.80;5.85;;;0.20;99.90;;;;;;4886967;29;20124;-84
2023/01/20 02:44:10;;;;;;;19.08;8.35;;;0.30;99.90;;;;;;4880465;29;20055;-84
2023/01/20 02:46:56;;;;;;;15.82;7.43;;;1.70;99.90;;;;;;4891102;29;20490;-84
2023/01/20 02:49:33;;;;;;;16.40;7.68;;;0.30;99.90;;;;;;4879402;29;20052;-84
2023/01/20 02:52:08;;;;;;;16.60;7.45;;;0.30;99.90;;;;;;4888245;29;20047;-83
2023/01/20 02:54:36;;;;;;;18.95;8.73;;;0.30;99.90;;;;;;4893564;29;20393;-84
2023/01/20 02:57:05;;;;;;;18.45;8.13;;;0.30;99.90;;;;;;4888026;29;20044;-83
2023/01/20 02:59:36;;;;;;;18.17;7.65;;;0.30;99.90;;;;;;4876930;29;20052;-85
2023/01/20 03:02:08;;;;;;;16.05;6.80;;;0.70;99.90;;;;;;4893293;29;20067;-84
2023/01/20 03:04:48;;;;;;;16.33;8.50;;;0.30;99.90;;;;;;4883829;29;20040;-84
2023/01/20 03:07:15;;;;;;;17.70;7.78;;;0.30;99.90;;;;;;4866202;29;20096;-86
2023/01/20 03:09:46;;;;;;;17.45;8.63;;;0.30;99.90;;;;;;4886791;29;20628;-84
2023/01/20 03:12:24;;;;;;;18.35;8.25;;;0.30;99.90;;;;;;4892311;29;20044;-85
2023/01/20 03:14:51;;;;;;;22.00;9.27;;;0.30;99.90;;;;;;4880169;29;20056;-84
2023/01/20 03:17:18;;;;;;;20.50;9.40;;;0.20;99.90;;;;;;4889356;29;20048;-84
2023/01/20 03:19:44;;;;;;;15.88;7.70;;;1.60;99.90;;;;;;4869363;29;20139;-85
2023/01/20 03:22:09;;;;;;;20.90;9.73;;;0.20;99.90;;;;;;4891193;29;20032;-84
2023/01/20 03:24:37;;;;;;;19.33;8.80;;;0.20;99.90;;;;;;4861890;29;20049;-85
2023/01/20 03:27:03;;;;;;;21.10;9.25;;;0.70;99.90;;;;;;4871817;29;20080;-85
2023/01/20 03:29:29;;;;;;;23.05;10.35;;;0.20;99.90;;;;;;4886379;29;20055;-85
2023/01/20 03:32:00;;;;;;;27.25;11.38;;;0.30;99.90;;;;;;4894169;29;20047;-85
2023/01/20 03:34:28;;;;;;;24.20;10.07;;;0.40;99.90;;;;;;4893769;29;20083;-85
2023/01/20 03:36:56;;;;;;;21.50;9.38;;;0.70;99.90;;;;;;4894508;29;20060;-85
2023/01/20 03:39:23;;;;;;;24.92;9.98;;;0.50;99.90;;;;;;4862514;29;20072;-85
2023/01/20 03:42:10;;;;;;;23.27;9.68;;;0.50;99.90;;;;;;4876978;29;20554;-85
2023/01/20 03:44:48;;;;;;;32.85;12.20;;;0.60;99.90;;;;;;4895128;29;20495;-85
2023/01/20 03:47:41;;;;;;;25.23;11.23;;;0.60;99.90;;;;;;4875651;29;20048;-85
2023/01/20 03:50:28;;;;;;;21.73;10.18;;;0.70;99.90;;;;;;4896127;29;20108;-85
2023/01/20 03:53:15;;;;;;;27.67;11.77;;;0.70;99.90;;;;;;4872224;29;20174;-85
2023/01/20 03:56:12;;;;;;;23.52;9.25;;;0.90;99.90;;;;;;4885279;29;20045;-85
2023/01/20 03:58:42;;;;;;;33.55;12.80;;;0.70;99.90;;;;;;4830878;29;20066;-85
2023/01/20 04:01:10;;;;;;;29.50;10.35;;;1.10;99.90;;;;;;4873899;29;20064;-85
2023/01/20 04:03:41;;;;;;;27.90;10.68;;;0.60;99.90;;;;;;4882491;29;20049;-86
2023/01/20 04:06:10;;;;;;;19.50;9.30;;;0.60;99.90;;;;;;4888566;29;20041;-85
2023/01/20 04:08:43;;;;;;;26.55;10.57;;;0.70;99.90;;;;;;4886378;29;20067;-85
2023/01/20 04:11:09;;;;;;;19.77;8.55;;;0.70;99.90;;;;;;4888019;29;20044;-85
2023/01/20 04:13:35;;;;;;;24.58;10.80;;;0.70;99.90;;;;;;4891786;29;20135;-85
2023/01/20 04:16:02;;;;;;;30.02;9.77;;;0.70;99.90;;;;;;4843636;29;20128;-85
2023/01/20 04:18:28;;;;;;;27.30;10.93;;;2.00;99.90;;;;;;4890643;29;20078;-85
2023/01/20 04:21:01;;;;;;;33.60;12.00;;;0.80;99.90;;;;;;4860258;29;20072;-85
2023/01/20 04:23:50;;;;;;;28.08;11.43;;;0.90;99.90;;;;;;4875596;29;20043;-85
2023/01/20 04:26:16;;;;;;;28.58;11.13;;;0.50;99.90;;;;;;4890444;29;20043;-85
2023/01/20 04:28:41;;;;;;;28.15;10.73;;;2.00;99.90;;;;;;4887711;29;20041;-85
2023/01/20 04:31:07;;;;;;;29.40;10.93;;;0.50;99.90;;;;;;4892659;29;20036;-85
2023/01/20 04:33:36;;;;;;;24.40;9.60;;;0.50;99.90;;;;;;4872028;29;20284;-86
2023/01/20 04:36:02;;;;;;;28.23;11.30;;;0.50;99.90;;;;;;4881213;29;20089;-85
2023/01/20 04:38:28;;;;;;;28.83;10.73;;;0.60;99.90;;;;;;4872040;29;20454;-86
2023/01/20 04:40:54;;;;;;;27.08;10.10;;;0.50;99.90;;;;;;4873753;29;20040;-85
2023/01/20 04:43:19;;;;;;;26.80;9.60;;;0.50;99.90;;;;;;4872722;29;20083;-85
2023/01/20 04:45:45;;;;;;;28.15;10.30;;;0.50;99.90;;;;;;4894284;29;20048;-85
2023/01/20 04:48:11;;;;;;;24.42;9.35;;;0.60;99.90;;;;;;4874550;29;20038;-85
2023/01/20 04:50:38;;;;;;;22.92;8.80;;;1.40;99.90;;;;;;4880136;29;20491;-85
2023/01/20 04:53:04;;;;;;;27.05;10.10;;;0.50;99.90;;;;;;4893579;29;20044;-85
2023/01/20 04:55:31;;;;;;;32.00;10.27;;;0.80;99.90;;;;;;4892515;29;20040;-85
2023/01/20 04:57:57;;;;;;;22.00;9.70;;;0.40;99.90;;;;;;4870464;29;20044;-85
2023/01/20 05:00:23;;;;;;;27.27;10.38;;;1.50;99.90;;;;;;4856899;29;20062;-85
2023/01/20 05:02:49;;;;;;;25.55;9.73;;;0.50;99.90;;;;;;4891697;29;20078;-85
2023/01/20 05:05:15;;;;;;;19.95;9.38;;;0.50;99.90;;;;;;4873325;29;20036;-85
2023/01/20 05:07:40;;;;;;;24.00;9.20;;;0.50;99.90;;;;;;4871096;29;20071;-85
2023/01/20 05:10:07;;;;;;;28.95;10.63;;;0.80;99.90;;;;;;4888633;29;20519;-85
2023/01/20 05:12:32;;;;;;;27.65;10.50;;;0.50;99.90;;;;;;4883071;29;20091;-85
2023/01/20 05:14:58;;;;;;;22.98;8.60;;;0.40;99.90;;;;;;4882458;29;20269;-85
2023/01/20 05:17:24;;;;;;;18.70;8.02;;;1.10;99.90;;;;;;4894884;29;20560;-85
2023/01/20 05:19:49;;;;;;;21.15;8.68;;;0.50;99.90;;;;;;4864505;29;20048;-85
2023/01/20 05:22:15;;;;;;;21.25;8.43;;;0.40;99.90;;;;;;4886042;29;20043;-85
2023/01/20 05:24:41;;;;;;;19.17;7.75;;;0.40;99.90;;;;;;4868915;29;20127;-85
2023/01/20 05:27:06;;;;;;;21.67;8.82;;;0.50;99.90;;;;;;4868775;29;20505;-85
2023/01/20 05:29:32;;;;;;;21.95;8.82;;;0.40;99.90;;;;;;4895803;29;20040;-86
2023/01/20 05:31:58;;;;;;;24.42;8.20;;;0.50;99.90;;;;;;4884167;29;20754;-85
2023/01/20 05:34:23;;;;;;;22.08;9.25;;;0.40;99.90;;;;;;4898496;29;20068;-85
2023/01/20 05:36:53;;;;;;;25.13;9.48;;;0.40;99.90;;;;;;4878083;29;20490;-85
2023/01/20 05:39:19;;;;;;;22.80;8.55;;;0.40;99.90;;;;;;4875990;29;20044;-85
2023/01/20 05:41:45;;;;;;;17.98;8.43;;;0.30;99.90;;;;;;4886988;29;20049;-84
2023/01/20 05:44:12;;;;;;;21.63;8.65;;;2.00;99.90;;;;;;4891258;29;20044;-84
2023/01/20 05:46:37;;;;;;;25.73;10.15;;;1.40;99.90;;;;;;4874928;29;20045;-84
2023/01/20 05:49:03;;;;;;;22.88;9.05;;;0.40;99.90;;;;;;4882964;29;20046;-84
2023/01/20 05:51:29;;;;;;;27.85;11.07;;;0.40;99.90;;;;;;4841222;29;20048;-84
2023/01/20 05:53:55;;;;;;;28.40;10.65;;;0.30;99.90;;;;;;4889451;29;20054;-85
2023/01/20 05:56:23;;;;;;;28.60;10.23;;;0.30;99.90;;;;;;4876525;29;20119;-84
2023/01/20 05:58:53;;;;;;;20.40;7.65;;;0.30;99.90;;;;;;4874326;29;20292;-85
2023/01/20 06:01:18;;;;;;;23.67;9.98;;;0.40;99.90;;;;;;4878514;29;20048;-84
2023/01/20 06:03:44;;;;;;;28.15;11.55;;;0.40;99.90;;;;;;4887038;29;20527;-84
2023/01/20 06:06:14;;;;;;;28.10;11.73;;;1.60;99.90;;;;;;4874060;29;20405;-84
2023/01/20 06:08:41;;;;;;;29.38;10.88;;;0.40;99.90;;;;;;4893783;29;20048;-84
2023/01/20 06:11:06;;;;;;;24.02;9.25;;;0.40;99.90;;;;;;4879670;29;20036;-84
2023/01/20 06:13:34;;;;;;;27.27;10.65;;;1.70;99.90;;;;;;4873701;29;20053;-83
2023/01/20 06:16:00;;;;;;;34.55;11.18;;;0.30;99.90;;;;;;4871524;29;20055;-84
2023/01/20 06:18:26;;;;;;;30.27;10.40;;;1.70;99.90;;;;;;4871694;29;20036;-84
2023/01/20 06:20:56;;;;;;;33.03;11.15;;;0.40;99.90;;;;;;4870224;29;20040;-83
2023/01/20 06:23:22;;;;;;;22.25;9.27;;;1.00;99.90;;;;;;4870427;29;20048;-82
2023/01/20 06:25:47;;;;;;;27.98;9.77;;;0.40;99.90;;;;;;4859161;29;20389;-82
2023/01/20 06:28:13;;;;;;;30.77;11.90;;;0.80;99.90;;;;;;4868930;29;20032;-83
2023/01/20 06:30:41;;;;;;;26.27;11.13;;;1.40;99.90;;;;;;4866504;29;20055;-83
2023/01/20 06:33:09;;;;;;;29.63;11.65;;;1.60;99.90;;;;;;4883386;29;20164;-82
2023/01/20 06:35:36;;;;;;;29.10;11.13;;;0.40;99.90;;;;;;4863098;29;20048;-83
2023/01/20 06:38:01;;;;;;;;;;;0.40;99.90;;;;;;4866145;29;20048;-83
2023/01/20 06:40:27;;;;;;;26.27;10.52;;;0.40;99.90;;;;;;4879029;29;19919;-83
2023/01/20 06:42:53;;;;;;;23.70;10.15;;;0.40;99.90;;;;;;4880801;29;20044;-82
2023/01/20 06:45:18;;;;;;;24.88;9.27;;;0.50;99.90;;;;;;4887079;29;20450;-83
2023/01/20 06:47:48;;;;;;;31.42;12.55;;;0.50;99.90;;;;;;4889272;29;20131;-83
2023/01/20 06:50:14;;;;;;;20.98;9.27;;;0.40;99.90;;;;;;4884131;29;20123;-84
2023/01/20 06:52:40;;;;;;;;;;;0.40;99.90;;;;;;4863465;29;20037;-83
2023/01/20 06:55:06;;;;;;;32.17;12.02;;;0.50;99.90;;;;;;4877485;29;20405;-83
2023/01/20 06:57:32;;;;;;;26.58;10.23;;;0.40;99.90;;;;;;4868740;29;21067;-84
2023/01/20 06:59:58;;;;;;;29.50;10.65;;;0.40;99.90;;;;;;4831254;29;20097;-82
2023/01/20 07:02:24;;;;;;;23.58;8.68;;;0.40;99.90;;;;;;4862365;29;20045;-84
2023/01/20 07:04:52;;;;;;;24.17;10.48;;;0.40;99.90;;;;;;4850822;29;20044;-83
2023/01/20 07:07:18;;;;;;;33.95;12.43;;;0.50;99.90;;;;;;4861695;29;20508;-83
2023/01/20 07:09:44;;;;;;;30.92;11.75;;;0.40;99.90;;;;;;4871494;29;20032;-84
2023/01/20 07:12:10;;;;;;;25.13;10.27;;;0.40;99.90;;;;;;4870787;29;20037;-83
2023/01/20 07:14:35;;;;;;;27.27;10.53;;;0.50;99.90;;;;;;4886805;29;20056;-84
2023/01/20 07:17:01;;;;;;;28.80;11.33;;;1.00;99.90;;;;;;4886591;29;20317;-84
2023/01/20 07:19:27;;;;;;;32.15;11.52;;;0.50;99.90;;;;;;4846688;29;20869;-84
2023/01/20 07:21:52;;;;;;;27.88;11.10;;;0.40;99.90;;;;;;4891358;29;20552;-82
2023/01/20 07:24:18;;;;;;;34.63;13.10;;;1.90;99.90;;;;;;4864577;29;20049;-82
2023/01/20 07:26:44;;;;;;;17.40;8.07;;;0.40;99.90;;;;;;4845649;29;20404;-81
2023/01/20 07:29:09;;;;;;;26.97;9.50;;;0.60;99.90;;;;;;4877929;29;20040;-81
2023/01/20 07:31:35;;;;;;;30.73;11.57;;;0.90;99.90;;;;;;4868845;29;20281;-81
2023/01/20 07:34:01;;;;;;;36.38;13.82;;;0.50;99.90;;;;;;4886747;29;20293;-81
2023/01/20 07:36:27;;;;;;;32.33;11.93;;;0.70;99.90;;;;;;4885840;29;20040;-77
2023/01/20 07:38:53;;;;;;;32.88;12.60;;;0.40;99.90;;;;;;4854467;29;20041;-77
2023/01/20 07:41:19;;;;;;;31.02;11.57;;;0.90;99.90;;;;;;4880363;29;20104;-77
2023/01/20 07:43:48;;;;;;;31.38;11.13;;;0.40;99.90;;;;;;4864470;29;20048;-77
2023/01/20 07:46:14;;;;;;;39.15;13.48;;;0.40;99.90;;;;;;4879363;29;20070;-77
2023/01/20 07:48:40;;;;;;;37.55;14.43;;;2.00;99.90;;;;;;4886885;29;20039;-77
2023/01/20 07:51:08;;;;;;;29.35;12.35;;;0.60;99.90;;;;;;4873519;29;20047;-77
2023/01/20 07:53:49;;;;;;;28.77;11.63;;;1.00;99.90;;;;;;4884370;29;20054;-77
2023/01/20 07:56:23;;;;;;;37.83;13.98;;;0.50;99.90;;;;;;4879366;29;20047;-78
2023/01/20 07:58:50;;;;;;;38.83;13.98;;;0.50;99.90;;;;;;4888028;29;20055;-77
2023/01/20 08:01:25;;;;;;;37.65;14.13;;;1.20;99.90;;;;;;4874209;29;20051;-78
2023/01/20 08:03:51;;;;;;;37.72;13.60;;;2.00;99.90;;;;;;4881787;29;20059;-80
2023/01/20 08:06:20;;;;;;;35.97;13.50;;;0.60;99.90;;;;;;4852130;29;20088;-77
2023/01/20 08:08:46;;;;;;;36.28;12.90;;;0.60;99.90;;;;;;4880964;29;20080;-78
2023/01/20 08:11:13;;;;;;;29.50;12.35;;;0.60;99.90;;;;;;4837642;29;20051;-78
2023/01/20 08:13:41;;;;;;;27.52;11.73;;;0.60;99.90;;;;;;4886328;29;20147;-77
2023/01/20 08:16:09;;;;;;;30.73;13.18;;;0.60;99.90;;;;;;4880929;29;20067;-77
2023/01/20 08:18:35;;;;;;;38.38;14.38;;;0.60;99.90;;;;;;4880999;29;20055;-78
2023/01/20 08:21:07;;;;;;;35.65;12.98;;;0.60;99.90;;;;;;4866450;29;20056;-77
2023/01/20 08:23:34;;;;;;;36.30;13.15;;;0.60;99.90;;;;;;4885844;29;20404;-77
2023/01/20 08:26:02;;;;;;;32.65;13.20;;;0.60;99.90;;;;;;4870194;29;20564;-77
2023/01/20 08:28:31;;;;;;;31.85;12.40;;;0.60;99.90;;;;;;4879433;29;20401;-78
2023/01/20 08:31:10;;;;;;;37.97;15.50;;;0.60;99.90;;;;;;4880925;29;20032;-77
2023/01/20 08:33:36;;;;;;;30.08;11.50;;;0.70;99.90;;;;;;4864200;29;20106;-78
2023/01/20 08:36:07;;;;;;;31.33;11.98;;;0.70;99.90;;;;;;4881730;29;20048;-78
2023/01/20 08:38:34;;;;;;;35.88;12.50;;;0.70;99.90;;;;;;4881090;29;20108;-78
2023/01/20 08:40:59;;;;;;;27.85;10.93;;;1.20;99.90;;;;;;4884281;29;20052;-78
2023/01/20 08:43:25;;;;;;;35.92;12.68;;;0.80;99.90;;;;;;4876426;29;20096;-78
2023/01/20 08:45:59;;;;;;;32.35;11.68;;;2.40;99.90;;;;;;4858957;29;20043;-78
2023/01/20 08:48:25;;;;;;;37.35;13.55;;;0.80;99.90;;;;;;4867911;29;20052;-78
2023/01/20 08:50:51;;;;;;;40.22;14.80;;;0.80;99.90;;;;;;4866273;29;20044;-78
2023/01/20 08:53:16;;;;;;;33.55;13.05;;;2.20;99.90;;;;;;4864452;29;20074;-78
2023/01/20 08:55:42;;;;;;;34.08;13.10;;;0.80;99.90;;;;;;4872951;29;20122;-78
2023/01/20 08:58:08;;;;;;;32.15;13.27;;;0.80;99.90;;;;;;4869224;29;20047;-78
2023/01/20 09:00:33;;;;;;;33.55;12.70;;;0.80;99.90;;;;;;4881803;29;20052;-77
2023/01/20 09:02:59;;;;;;;38.05;15.38;;;0.80;99.90;;;;;;4865767;29;20044;-78
2023/01/20 09:05:26;;;;;;;35.42;13.90;;;0.80;99.90;;;;;;4885469;29;20044;-78
2023/01/20 09:07:51;;;;;;;37.78;13.68;;;0.80;99.90;;;;;;4863607;29;20551;-78
2023/01/20 09:10:18;;;;;;;30.48;13.32;;;0.80;99.90;;;;;;4872352;29;20124;-78
2023/01/20 09:12:45;;;;;;;41.58;15.82;;;0.90;99.90;;;;;;4875030;29;20048;-77
2023/01/20 09:15:11;;;;;;;37.22;14.38;;;0.90;99.90;;;;;;4873340;29;20052;-77
2023/01/20 09:17:37;;;;;;;35.95;13.32;;;1.00;99.90;;;;;;4867798;29;20043;-78
2023/01/20 09:20:03;;;;;;;38.05;14.05;;;0.90;99.90;;;;;;4878163;29;20041;-78
2023/01/20 09:22:28;;;;;;;35.97;14.00;;;1.00;99.90;;;;;;4863533;29;20047;-78
2023/01/20 09:24:54;;;;;;;39.42;14.23;;;0.80;99.90;;;;;;4863900;29;20099;-78
2023/01/20 09:27:20;;;;;;;26.80;13.10;;;1.00;99.90;;;;;;4841112;29;20444;-78
2023/01/20 09:29:46;;;;;;;33.47;13.35;;;1.00;99.90;;;;;;4862396;29;20040;-79
2023/01/20 09:32:12;;;;;;;39.30;15.30;;;1.00;99.90;;;;;;4881915;29;20134;-79
2023/01/20 09:34:40;;;;;;;32.75;13.20;;;1.00;99.90;;;;;;4879550;29;20056;-79
2023/01/20 09:46:00;;;;;;;37.85;13.27;;;1.00;99.90;;;;;;4877185;29;20048;-79
2023/01/20 09:54:47;;;;;;;41.83;14.65;;;1.00;99.90;;;;;;4862233;29;20048;-77
2023/01/20 09:57:13;;;;;;;37.90;14.63;;;2.40;99.90;;;;;;4875158;29;20141;-77
2023/01/20 09:59:49;;;;;;;30.38;14.02;;;1.10;99.90;;;;;;4868466;29;20147;-77
2023/01/20 10:02:21;;;;;;;37.37;15.23;;;1.20;99.90;;;;;;4860189;29;20040;-76
2023/01/20 10:04:59;;;;;;;38.03;14.07;;;1.10;99.90;;;;;;4880474;29;20052;-77
2023/01/20 10:07:49;;;;;;;46.97;14.68;;;1.10;99.90;;;;;;4863232;29;20054;-77
2023/01/20 10:10:26;;;;;;;36.17;14.10;;;1.10;99.90;;;;;;4879400;29;20100;-77
2023/01/20 10:13:26;;;;;;;33.17;12.50;;;1.10;99.90;;;;;;4868040;29;20055;-77
2023/01/20 10:15:54;;;;;;;38.55;14.65;;;1.10;99.90;;;;;;4870768;29;20048;-78
2023/01/20 10:18:39;;;;;;;31.55;12.73;;;1.10;99.90;;;;;;4884647;29;20044;-77
2023/01/20 10:21:13;;;;;;;43.75;14.32;;;1.10;99.90;;;;;;4878458;29;20044;-77
2023/01/20 10:23:53;;;;;;;35.47;13.00;;;1.20;99.90;;;;;;4866289;29;20048;-77
2023/01/20 10:26:37;;;;;;;41.85;15.68;;;1.10;99.90;;;;;;4878801;29;20048;-77
2023/01/20 10:29:19;;;;;;;45.55;14.30;;;2.20;99.90;;;;;;4864663;29;20053;-77
2023/01/20 10:31:52;;;;;;;40.20;13.98;;;1.10;99.90;;;;;;4883177;29;20040;-77
2023/01/20 10:34:19;;;;;;;43.10;15.52;;;1.10;99.90;;;;;;4885834;29;20043;-78
2023/01/20 10:36:57;;;;;;;38.50;14.18;;;1.10;99.90;;;;;;4884086;29;20039;-77
2023/01/20 10:39:29;;;;;;;37.30;14.68;;;1.10;99.90;;;;;;4884005;29;20119;-77
2023/01/20 10:42:03;;;;;;;40.95;15.05;;;1.10;99.90;;;;;;4885317;29;20044;-77
2023/01/20 10:44:34;;;;;;;37.58;14.57;;;1.10;99.90;;;;;;4865343;29;20056;-77
2023/01/20 10:47:13;;;;;;;39.28;13.93;;;1.10;99.90;;;;;;4871888;29;20516;-78
2023/01/20 10:49:42;;;;;;;43.33;14.73;;;1.10;99.90;;;;;;4886188;29;20060;-78
2023/01/20 10:52:56;;;;;;;39.30;15.25;;;1.10;99.90;;;;;;4884589;29;20028;-78
2023/01/20 10:55:33;;;;;;;41.58;14.85;;;1.10;99.90;;;;;;4848626;29;20112;-77
2023/01/20 10:58:04;;;;;;;;;;;1.10;99.90;;;;;;4864467;29;20048;-78
2023/01/20 11:00:30;;;;;;;32.60;12.75;;;2.70;99.90;;;;;;4891747;29;20291;-77
2023/01/20 11:02:59;;;;;;;29.35;11.88;;;1.70;99.90;;;;;;4866251;29;20558;-77
2023/01/20 11:05:28;;;;;;;31.25;11.32;;;1.40;99.90;;;;;;4889424;29;20044;-77
2023/01/20 11:07:55;;;;;;;37.47;12.48;;;1.10;99.90;;;;;;4886717;29;20128;-77
2023/01/20 11:10:24;;;;;;;32.95;12.85;;;1.20;99.90;;;;;;4879739;29;20580;-77
2023/01/20 11:12:59;;;;;;;37.22;13.50;;;1.20;99.90;;;;;;4881885;29;20041;-78
2023/01/20 11:15:34;;;;;;;43.85;14.18;;;1.30;99.90;;;;;;4878746;29;20053;-77
2023/01/20 11:18:15;;;;;;;34.15;12.68;;;2.40;99.90;;;;;;4878092;29;20120;-78
2023/01/20 11:20:51;;;;;;;43.17;15.10;;;1.30;99.90;;;;;;4889026;29;20044;-77
2023/01/20 11:23:31;;;;;;;37.17;12.48;;;1.20;99.90;;;;;;4882615;29;20044;-78
2023/01/20 11:26:00;;;;;;;38.40;13.73;;;2.00;99.90;;;;;;4879119;29;20044;-78
2023/01/20 11:28:36;;;;;;;41.40;12.88;;;1.50;99.90;;;;;;4881821;29;20569;-77
2023/01/20 11:31:03;;;;;;;38.65;12.95;;;0.30;99.90;;;;;;4888838;29;20044;-77
2023/01/20 11:33:29;;;;;;;40.58;14.50;;;1.30;99.90;;;;;;4878428;29;20123;-78
2023/01/20 11:36:04;;;;;;;36.92;14.20;;;1.30;99.90;;;;;;4833450;29;20121;-78
2023/01/20 11:38:42;;;;;;;35.45;13.90;;;1.30;99.90;;;;;;4882037;29;20044;-77
2023/01/20 11:41:22;;;;;;;33.17;12.13;;;1.20;99.90;;;;;;4881529;29;20469;-77
2023/01/20 11:43:49;;;;;;;41.60;14.73;;;1.30;99.90;;;;;;4891504;29;20044;-77
2023/01/20 11:46:18;;;;;;;33.92;12.63;;;1.20;99.90;;;;;;4866257;29;20502;-77
2023/01/20 11:48:44;;;;;;;42.75;14.20;;;1.20;99.90;;;;;;4887275;29;20048;-78
2023/01/20 11:51:28;;;;;;;34.50;12.02;;;2.60;99.90;;;;;;4882986;29;20043;-77
2023/01/20 11:54:16;;;;;;;38.45;13.57;;;1.20;99.90;;;;;;4883632;29;20099;-77
2023/01/20 11:56:44;;;;;;;39.45;13.05;;;1.20;99.90;;;;;;4889500;29;20040;-76
2023/01/20 11:59:20;;;;;;;43.25;14.38;;;1.20;99.90;;;;;;4886450;29;20405;-76
2023/01/20 12:01:52;;;;;;;36.15;13.07;;;1.20;99.90;;;;;;4883681;29;20071;-77
2023/01/20 12:04:47;;;;;;;42.70;14.05;;;1.20;99.90;;;;;;4882554;29;20051;-77
2023/01/20 12:07:33;;;;;;;36.78;13.25;;;1.20;99.90;;;;;;4888172;29;20048;-78
2023/01/20 12:10:12;;;;;;;33.63;13.88;;;1.20;99.90;;;;;;4884608;29;20390;-77
2023/01/20 12:12:52;;;;;;;31.45;12.43;;;1.30;99.90;;;;;;4882230;29;20060;-78
2023/01/20 12:15:24;;;;;;;38.78;13.00;;;1.30;99.90;;;;;;4872640;29;20048;-77
2023/01/20 12:17:53;;;;;;;38.95;13.98;;;1.30;99.90;;;;;;4871636;29;20044;-77
2023/01/20 12:21:17;;;;;;;37.72;14.30;;;1.30;99.90;;;;;;4876915;29;20047;-77
2023/01/20 12:24:24;;;;;;;38.63;14.48;;;1.30;99.90;;;;;;4844881;29;20056;-80
2023/01/20 12:26:50;;;;;;;37.88;14.85;;;1.30;99.90;;;;;;4887083;29;20845;-79
2023/01/20 12:29:35;;;;;;;35.33;12.30;;;1.30;99.90;;;;;;4889395;29;20048;-81
2023/01/20 12:32:02;;;;;;;37.13;13.68;;;1.30;99.90;;;;;;4895769;29;20047;-81
2023/01/20 12:34:28;;;;;;;;;;;1.30;99.90;;;;;;4869410;29;20032;-80
2023/01/20 12:37:19;;;;;;;34.72;13.13;;;1.30;99.90;;;;;;4868391;29;19926;-80
2023/01/20 12:40:18;;;;;;;42.13;13.77;;;1.30;99.90;;;;;;4890766;29;20067;-79
2023/01/20 12:43:02;;;;;;;35.05;13.25;;;1.30;99.90;;;;;;4874854;29;20390;-80
2023/01/20 12:45:42;;;;;;;37.08;13.70;;;1.30;99.90;;;;;;4889868;29;20046;-80
2023/01/20 12:48:35;;;;;;;38.63;13.07;;;1.30;99.90;;;;;;4876725;29;20048;-81
2023/01/20 12:51:40;;;;;;;34.72;13.05;;;2.70;99.90;;;;;;4889540;29;20040;-81
2023/01/20 12:54:31;;;;;;;34.00;13.07;;;1.30;99.90;;;;;;4858217;29;20041;-81
2023/01/20 12:57:20;;;;;;;40.20;13.15;;;1.30;99.90;;;;;;4891090;29;20050;-81
2023/01/20 12:59:48;;;;;;;32.92;11.93;;;1.20;99.90;;;;;;4871261;29;20044;-80
2023/01/20 13:02:42;;;;;;;32.20;12.50;;;1.20;99.90;;;;;;4885674;29;20074;-81
2023/01/20 13:05:19;;;;;;;39.35;13.88;;;1.30;99.90;;;;;;4878084;29;20564;-81
2023/01/20 13:08:03;;;;;;;37.72;13.13;;;1.20;99.90;;;;;;4886089;29;20450;-81
2023/01/20 13:10:52;;;;;;;42.83;14.10;;;1.20;99.90;;;;;;4888922;29;20044;-81
2023/01/20 13:13:27;;;;;;;30.35;11.50;;;1.20;99.90;;;;;;4888307;29;20509;-80
2023/01/20 13:16:09;;;;;;;35.17;12.95;;;1.40;99.90;;;;;;4896447;29;20417;-81
2023/01/20 13:19:12;;;;;;;39.03;13.60;;;1.30;99.90;;;;;;4889004;29;20040;-81